Time;durP1;ratioP1;P1;durP2;ratioP2;P2;SDS_P1;SDS_P2;PMS_P1;PMS_P2;Temp;Humidity;BMP_temperature;BMP_pressure;BME280_temperature;BME280_humidity;BME280_pressure;Samples;Min_cycle;Max_cycle;Signal;HPM_P1;HPM_P2
2022/12/08 00:01:45;;;;;;;;;;;;;;;;;;4954206;29;19941;-81
2022/12/08 00:04:10;;;;;;;;;;;;;;;;;;4954618;29;19922;-81
2022/12/08 00:09:23;;;;;;;;;;;;;;;;;;4959652;28;19915;-81
2022/12/08 00:11:48;;;;;;;;;;;;;;;;;;4958073;29;19938;-80
2022/12/08 00:14:14;;;;;;;;;;;;;;;;;;4957871;28;20398;-81
2022/12/08 00:16:39;;;;;;;;;;;;;;;;;;4968868;28;19921;-81
2022/12/08 00:19:05;;;;;;;;;;;;;;;;;;4961666;28;20001;-81
2022/12/08 00:21:30;;;;;;;;;;;;;;;;;;4978888;28;19925;-80
2022/12/08 00:23:56;;;;;;;;;;;;;;;;;;4961878;28;20397;-80
2022/12/08 00:26:21;;;;;;;;;;;;;;;;;;4961120;28;19976;-81
2022/12/08 00:28:47;;;;;;;;;;;;;;;;;;4962902;28;20365;-81
2022/12/08 00:31:12;;;;;;;;;;;;;;;;;;4962534;28;19981;-81
2022/12/08 00:33:37;;;;;;;;;;;;;;;;;;4960964;28;20369;-81
2022/12/08 00:36:03;;;;;;;;;;;;;;;;;;4978716;28;19914;-80
2022/12/08 00:38:28;;;;;;;;;;;;;;;;;;4978436;28;20378;-81
2022/12/08 00:40:54;;;;;;;;;;;;;;;;;;4945620;28;19994;-81
2022/12/08 00:43:19;;;;;;;;;;;;;;;;;;4977994;28;20333;-81
2022/12/08 00:45:44;;;;;;;;;;;;;;;;;;4956918;28;19922;-81
2022/12/08 00:48:10;;;;;;;;;;;;;;;;;;4959812;29;19915;-81
2022/12/08 00:50:35;;;;;;;;;;;;;;;;;;4943519;29;19914;-80
2022/12/08 00:53:01;;;;;;;;;;;;;;;;;;4958485;29;19915;-81
2022/12/08 00:55:26;;;;;;;;;;;;;;;;;;4943222;29;20366;-81
2022/12/08 00:57:51;;;;;;;;;;;;;;;;;;4967132;28;19921;-81
2022/12/08 01:00:17;;;;;;;;;;;;;;;;;;4964052;28;19922;-81
2022/12/08 01:02:42;;;;;;;;;;;;;;;;;;4959261;28;19922;-81
2022/12/08 01:05:08;;;;;;;;;;;;;;;;;;4941786;29;20362;-81
2022/12/08 01:07:33;;;;;;;;;;;;;;;;;;4942306;29;20009;-81
2022/12/08 01:09:59;;;;;;;;;;;;;;;;;;4960285;29;19949;-81
2022/12/08 01:12:24;;;;;;;;;;;;;;;;;;4959694;29;19918;-81
2022/12/08 01:14:49;;;;;;;;;;;;;;;;;;4928277;29;19982;-81
2022/12/08 01:17:15;;;;;;;;;;;;;;;;;;4976740;28;19961;-81
2022/12/08 01:19:40;;;;;;;;;;;;;;;;;;4947860;28;20353;-81
2022/12/08 01:22:06;;;;;;;;;;;;;;;;;;4963157;28;20398;-81
2022/12/08 01:24:31;;;;;;;;;;;;;;;;;;4963013;28;19964;-81
2022/12/08 01:26:57;;;;;;;;;;;;;;;;;;4978606;28;20001;-81
2022/12/08 01:29:22;;;;;;;;;;;;;;;;;;4980091;28;20415;-81
2022/12/08 01:31:47;;;;;;;;;;;;;;;;;;4961986;28;20416;-82
2022/12/08 01:34:13;;;;;;;;;;;;;;;;;;4978243;28;19920;-81
2022/12/08 01:36:38;;;;;;;;;;;;;;;;;;4941819;29;19914;-81
2022/12/08 01:39:04;;;;;;;;;;;;;;;;;;4960015;29;20465;-81
2022/12/08 01:41:30;;;;;;;;;;;;;;;;;;4959612;29;19918;-81
2022/12/08 01:43:55;;;;;;;;;;;;;;;;;;4959747;29;19919;-81
2022/12/08 01:46:21;;;;;;;;;;;;;;;;;;4960189;28;19921;-81
2022/12/08 01:48:46;;;;;;;;;;;;;;;;;;4959601;29;20289;-81
2022/12/08 01:51:11;;;;;;;;;;;;;;;;;;4959667;28;20278;-81
2022/12/08 01:53:37;;;;;;;;;;;;;;;;;;4963950;28;19921;-80
2022/12/08 01:56:02;;;;;;;;;;;;;;;;;;4943069;29;20005;-81
2022/12/08 01:58:28;;;;;;;;;;;;;;;;;;4960079;29;19914;-80
2022/12/08 02:00:53;;;;;;;;;;;;;;;;;;4959762;28;20402;-81
2022/12/08 02:03:18;;;;;;;;;;;;;;;;;;4943493;29;19915;-81
2022/12/08 02:05:44;;;;;;;;;;;;;;;;;;4960685;28;19946;-80
2022/12/08 02:08:09;;;;;;;;;;;;;;;;;;4958738;29;19993;-80
2022/12/08 02:10:34;;;;;;;;;;;;;;;;;;4942845;29;20302;-80
2022/12/08 02:13:00;;;;;;;;;;;;;;;;;;4938735;29;19917;-80
2022/12/08 02:15:25;;;;;;;;;;;;;;;;;;4939004;29;19918;-81
2022/12/08 02:17:51;;;;;;;;;;;;;;;;;;4939135;29;19914;-79
2022/12/08 02:20:16;;;;;;;;;;;;;;;;;;4955823;29;19970;-80
2022/12/08 02:22:41;;;;;;;;;;;;;;;;;;4957972;29;20272;-81
2022/12/08 02:25:07;;;;;;;;;;;;;;;;;;4958926;28;20060;-81
2022/12/08 02:27:32;;;;;;;;;;;;;;;;;;4978198;23;19929;-81
2022/12/08 02:29:58;;;;;;;;;;;;;;;;;;5001511;28;19914;-83
2022/12/08 02:32:23;;;;;;;;;;;;;;;;;;4976552;28;19920;-83
2022/12/08 02:34:49;;;;;;;;;;;;;;;;;;4989141;28;19918;-82
2022/12/08 02:37:14;;;;;;;;;;;;;;;;;;4980972;28;19916;-82
2022/12/08 02:39:40;;;;;;;;;;;;;;;;;;4958249;29;20294;-82
2022/12/08 02:42:05;;;;;;;;;;;;;;;;;;4974861;29;19919;-82
2022/12/08 02:44:30;;;;;;;;;;;;;;;;;;4971604;28;19914;-82
2022/12/08 02:46:56;;;;;;;;;;;;;;;;;;4997207;28;19918;-82
2022/12/08 02:49:22;;;;;;;;;;;;;;;;;;4964577;28;19949;-82
2022/12/08 02:51:47;;;;;;;;;;;;;;;;;;4997413;28;19906;-80
2022/12/08 02:54:13;;;;;;;;;;;;;;;;;;4990488;28;19929;-81
2022/12/08 02:56:38;;;;;;;;;;;;;;;;;;4992587;28;19921;-80
2022/12/08 02:59:04;;;;;;;;;;;;;;;;;;4974732;28;19918;-81
2022/12/08 03:01:29;;;;;;;;;;;;;;;;;;4983538;28;19962;-81
2022/12/08 03:03:54;;;;;;;;;;;;;;;;;;4987739;28;19949;-81
2022/12/08 03:06:20;;;;;;;;;;;;;;;;;;4985621;28;19918;-80
2022/12/08 03:08:45;;;;;;;;;;;;;;;;;;4989863;28;19962;-82
2022/12/08 03:11:11;;;;;;;;;;;;;;;;;;4997522;28;19934;-81
2022/12/08 03:13:36;;;;;;;;;;;;;;;;;;4978744;28;19957;-81
2022/12/08 03:16:01;;;;;;;;;;;;;;;;;;4994076;28;20378;-81
2022/12/08 03:18:27;;;;;;;;;;;;;;;;;;4977956;28;20373;-82
2022/12/08 03:20:52;;;;;;;;;;;;;;;;;;4973142;28;20369;-82
2022/12/08 03:23:18;;;;;;;;;;;;;;;;;;4990008;28;19918;-82
2022/12/08 03:25:43;;;;;;;;;;;;;;;;;;4974929;28;19941;-82
2022/12/08 03:28:08;;;;;;;;;;;;;;;;;;4973642;28;19945;-81
2022/12/08 03:30:34;;;;;;;;;;;;;;;;;;4990638;28;19915;-81
2022/12/08 03:32:59;;;;;;;;;;;;;;;;;;4971643;28;19917;-81
2022/12/08 03:35:25;;;;;;;;;;;;;;;;;;4943073;29;19914;-81
2022/12/08 03:37:50;;;;;;;;;;;;;;;;;;4965627;28;19914;-82
2022/12/08 03:40:16;;;;;;;;;;;;;;;;;;4965910;29;19915;-81
2022/12/08 03:42:41;;;;;;;;;;;;;;;;;;4964498;29;19981;-82
2022/12/08 03:45:07;;;;;;;;;;;;;;;;;;4964625;28;20081;-81
2022/12/08 03:47:32;;;;;;;;;;;;;;;;;;4947204;29;19915;-81
2022/12/08 03:49:58;;;;;;;;;;;;;;;;;;4964131;29;19918;-81
2022/12/08 03:52:23;;;;;;;;;;;;;;;;;;4967836;28;19957;-82
2022/12/08 03:54:48;;;;;;;;;;;;;;;;;;4983784;28;19921;-81
2022/12/08 03:57:14;;;;;;;;;;;;;;;;;;4984035;28;19914;-81
2022/12/08 03:59:39;;;;;;;;;;;;;;;;;;4951646;28;19964;-81
2022/12/08 04:02:05;;;;;;;;;;;;;;;;;;4986041;28;19941;-82
2022/12/08 04:04:30;;;;;;;;;;;;;;;;;;4969749;28;20443;-81
2022/12/08 04:06:55;;;;;;;;;;;;;;;;;;4964442;28;19918;-81
2022/12/08 04:09:21;;;;;;;;;;;;;;;;;;4975785;28;20353;-81
2022/12/08 04:11:46;;;;;;;;;;;;;;;;;;4980332;28;19910;-80
2022/12/08 04:14:11;;;;;;;;;;;;;;;;;;4981799;28;19921;-81
2022/12/08 04:16:37;;;;;;;;;;;;;;;;;;4982457;28;19942;-81
2022/12/08 04:19:02;;;;;;;;;;;;;;;;;;4966506;28;19914;-82
2022/12/08 04:21:28;;;;;;;;;;;;;;;;;;4983815;28;20436;-81
2022/12/08 04:23:53;;;;;;;;;;;;;;;;;;4966032;28;19920;-82
2022/12/08 04:26:19;;;;;;;;;;;;;;;;;;4965040;28;20729;-82
2022/12/08 04:28:44;;;;;;;;;;;;;;;;;;4954981;28;19918;-80
2022/12/08 04:31:10;;;;;;;;;;;;;;;;;;4986594;28;19937;-82
2022/12/08 04:33:35;;;;;;;;;;;;;;;;;;4969467;28;19914;-81
2022/12/08 04:36:01;;;;;;;;;;;;;;;;;;4952947;28;19914;-81
2022/12/08 04:38:26;;;;;;;;;;;;;;;;;;4968285;28;19973;-81
2022/12/08 04:40:51;;;;;;;;;;;;;;;;;;4951177;28;19914;-82
2022/12/08 04:43:17;;;;;;;;;;;;;;;;;;4963522;29;19922;-81
2022/12/08 04:45:42;;;;;;;;;;;;;;;;;;4949826;29;19925;-82
2022/12/08 04:48:08;;;;;;;;;;;;;;;;;;4950746;29;19914;-82
2022/12/08 04:50:33;;;;;;;;;;;;;;;;;;4968049;29;20371;-82
2022/12/08 04:52:59;;;;;;;;;;;;;;;;;;4948752;29;19921;-82
2022/12/08 04:55:24;;;;;;;;;;;;;;;;;;4965617;29;19915;-81
2022/12/08 04:57:49;;;;;;;;;;;;;;;;;;4972033;28;19914;-82
2022/12/08 05:00:15;;;;;;;;;;;;;;;;;;4968241;28;19937;-80
2022/12/08 05:02:40;;;;;;;;;;;;;;;;;;4951741;29;19929;-82
2022/12/08 05:05:06;;;;;;;;;;;;;;;;;;4972557;29;19905;-82
2022/12/08 05:07:31;;;;;;;;;;;;;;;;;;4973860;28;19921;-82
2022/12/08 05:09:56;;;;;;;;;;;;;;;;;;4975577;29;19950;-82
2022/12/08 05:12:22;;;;;;;;;;;;;;;;;;4971445;29;19938;-79
2022/12/08 05:14:47;;;;;;;;;;;;;;;;;;4969350;29;19926;-81
2022/12/08 05:17:13;;;;;;;;;;;;;;;;;;4971533;28;19914;-82
2022/12/08 05:19:38;;;;;;;;;;;;;;;;;;4971995;28;20182;-83
2022/12/08 05:22:04;;;;;;;;;;;;;;;;;;4979350;28;19990;-82
2022/12/08 05:24:29;;;;;;;;;;;;;;;;;;4970878;29;20013;-80
2022/12/08 05:26:55;;;;;;;;;;;;;;;;;;4952222;29;19919;-81
2022/12/08 05:29:20;;;;;;;;;;;;;;;;;;4979036;28;19915;-81
2022/12/08 05:31:46;;;;;;;;;;;;;;;;;;4991073;28;19918;-82
2022/12/08 05:34:11;;;;;;;;;;;;;;;;;;4994627;28;19924;-82
2022/12/08 05:36:37;;;;;;;;;;;;;;;;;;4998060;28;20289;-82
2022/12/08 05:39:02;;;;;;;;;;;;;;;;;;4992453;28;19914;-82
2022/12/08 05:41:28;;;;;;;;;;;;;;;;;;4974164;28;19929;-82
2022/12/08 05:43:53;;;;;;;;;;;;;;;;;;4973366;29;19914;-82
2022/12/08 05:46:19;;;;;;;;;;;;;;;;;;4955687;28;19946;-82
2022/12/08 05:48:44;;;;;;;;;;;;;;;;;;4969266;29;19915;-81
2022/12/08 05:51:10;;;;;;;;;;;;;;;;;;4966972;29;19922;-81
2022/12/08 05:53:35;;;;;;;;;;;;;;;;;;4971285;29;19914;-81
2022/12/08 05:56:00;;;;;;;;;;;;;;;;;;4970911;28;19921;-82
2022/12/08 05:58:26;;;;;;;;;;;;;;;;;;4960316;28;19910;-81
2022/12/08 06:00:51;;;;;;;;;;;;;;;;;;4950525;29;19914;-81
2022/12/08 06:03:17;;;;;;;;;;;;;;;;;;4968173;29;19917;-82
2022/12/08 06:05:42;;;;;;;;;;;;;;;;;;4968985;29;19914;-82
2022/12/08 06:08:08;;;;;;;;;;;;;;;;;;4969024;28;19919;-82
2022/12/08 06:10:33;;;;;;;;;;;;;;;;;;4967683;29;20446;-81
2022/12/08 06:12:59;;;;;;;;;;;;;;;;;;4967555;29;19965;-81
2022/12/08 06:15:24;;;;;;;;;;;;;;;;;;4966990;29;19922;-82
2022/12/08 06:17:50;;;;;;;;;;;;;;;;;;4971379;28;19922;-82
2022/12/08 06:20:15;;;;;;;;;;;;;;;;;;4968249;29;19926;-82
2022/12/08 06:22:41;;;;;;;;;;;;;;;;;;4968007;29;19923;-81
2022/12/08 06:25:06;;;;;;;;;;;;;;;;;;4950180;29;19915;-81
2022/12/08 06:27:32;;;;;;;;;;;;;;;;;;4967175;28;19922;-81
2022/12/08 06:29:57;;;;;;;;;;;;;;;;;;4972030;29;20006;-82
2022/12/08 06:32:23;;;;;;;;;;;;;;;;;;4938418;29;19974;-84
2022/12/08 06:34:48;;;;;;;;;;;;;;;;;;4964003;28;19918;-81
2022/12/08 06:37:14;;;;;;;;;;;;;;;;;;4974835;28;19914;-82
2022/12/08 06:39:40;;;;;;;;;;;;;;;;;;4980100;28;19921;-81
2022/12/08 06:44:50;;;;;;;;;;;;;;;;;;4997839;28;19914;-82
2022/12/08 06:47:15;;;;;;;;;;;;;;;;;;4995016;28;19914;-80
2022/12/08 06:49:41;;;;;;;;;;;;;;;;;;4960931;28;19982;-82
2022/12/08 06:52:07;;;;;;;;;;;;;;;;;;4977454;28;19922;-82
2022/12/08 06:54:33;;;;;;;;;;;;;;;;;;4979960;28;19910;-83
2022/12/08 06:56:59;;;;;;;;;;;;;;;;;;4980327;28;19918;-83
2022/12/08 06:59:25;;;;;;;;;;;;;;;;;;4997291;28;19914;-83
2022/12/08 07:01:51;;;;;;;;;;;;;;;;;;4965108;28;19934;-82
2022/12/08 07:04:17;;;;;;;;;;;;;;;;;;4965077;28;19894;-82
2022/12/08 07:06:42;;;;;;;;;;;;;;;;;;4981946;28;19973;-82
2022/12/08 07:09:08;;;;;;;;;;;;;;;;;;4997660;28;19981;-82
2022/12/08 07:11:33;;;;;;;;;;;;;;;;;;4982234;28;19925;-83
2022/12/08 07:13:59;;;;;;;;;;;;;;;;;;4998480;28;19913;-81
2022/12/08 07:16:24;;;;;;;;;;;;;;;;;;4998339;28;19898;-82
2022/12/08 07:18:50;;;;;;;;;;;;;;;;;;4999135;28;19906;-82
2022/12/08 07:21:15;;;;;;;;;;;;;;;;;;4997134;28;19918;-82
2022/12/08 07:23:43;;;;;;;;;;;;;;;;;;4980943;28;19906;-82
2022/12/08 07:26:09;;;;;;;;;;;;;;;;;;4998835;28;19970;-82
2022/12/08 07:28:35;;;;;;;;;;;;;;;;;;4978959;28;19918;-82
2022/12/08 07:31:01;;;;;;;;;;;;;;;;;;4945187;28;19920;-82
2022/12/08 07:33:26;;;;;;;;;;;;;;;;;;4996041;28;19915;-83
2022/12/08 07:35:52;;;;;;;;;;;;;;;;;;4947401;28;19894;-83
2022/12/08 07:38:19;;;;;;;;;;;;;;;;;;4962437;28;19913;-82
2022/12/08 07:40:44;;;;;;;;;;;;;;;;;;4992249;28;19914;-82
2022/12/08 07:43:10;;;;;;;;;;;;;;;;;;4955497;29;19925;-83
2022/12/08 07:45:36;;;;;;;;;;;;;;;;;;4970210;29;19977;-82
2022/12/08 07:48:02;;;;;;;;;;;;;;;;;;4969926;28;19915;-82
2022/12/08 07:50:27;;;;;;;;;;;;;;;;;;4971695;29;19974;-82
2022/12/08 07:52:52;;;;;;;;;;;;;;;;;;4972192;29;19982;-82
2022/12/08 07:55:18;;;;;;;;;;;;;;;;;;4951739;29;19918;-81
2022/12/08 07:57:43;;;;;;;;;;;;;;;;;;4967586;28;19914;-82
2022/12/08 08:00:09;;;;;;;;;;;;;;;;;;4973902;28;19914;-81
2022/12/08 08:02:37;;;;;;;;;;;;;;;;;;4972451;28;19922;-82
2022/12/08 08:05:03;;;;;;;;;;;;;;;;;;4990933;28;19942;-82
2022/12/08 08:07:29;;;;;;;;;;;;;;;;;;4971947;28;19914;-82
2022/12/08 08:09:54;;;;;;;;;;;;;;;;;;4991276;28;19956;-82
2022/12/08 08:12:20;;;;;;;;;;;;;;;;;;4990223;28;19914;-82
2022/12/08 08:14:45;;;;;;;;;;;;;;;;;;4984122;28;19920;-82
2022/12/08 08:17:11;;;;;;;;;;;;;;;;;;4969899;28;19915;-83
2022/12/08 08:19:40;;;;;;;;;;;;;;;;;;4955702;29;19902;-82
2022/12/08 08:22:08;;;;;;;;;;;;;;;;;;4957078;29;19926;-82
2022/12/08 08:24:34;;;;;;;;;;;;;;;;;;4956566;29;19921;-83
2022/12/08 08:27:00;;;;;;;;;;;;;;;;;;4972346;28;19925;-84
2022/12/08 08:29:25;;;;;;;;;;;;;;;;;;4972001;28;19911;-82
2022/12/08 08:31:51;;;;;;;;;;;;;;;;;;4958944;29;19914;-82
2022/12/08 08:34:16;;;;;;;;;;;;;;;;;;4971630;28;19949;-82
2022/12/08 08:36:42;;;;;;;;;;;;;;;;;;4978939;28;19914;-83
2022/12/08 08:39:11;;;;;;;;;;;;;;;;;;4995465;28;19910;-83
2022/12/08 08:41:37;;;;;;;;;;;;;;;;;;4995055;28;19918;-82
2022/12/08 08:44:02;;;;;;;;;;;;;;;;;;4980057;28;19902;-82
2022/12/08 08:46:28;;;;;;;;;;;;;;;;;;4980404;28;19922;-83
2022/12/08 08:48:54;;;;;;;;;;;;;;;;;;4980886;28;19914;-82
2022/12/08 08:51:23;;;;;;;;;;;;;;;;;;4964515;28;19914;-82
2022/12/08 08:53:49;;;;;;;;;;;;;;;;;;4996994;28;19938;-83
2022/12/08 08:56:21;;;;;;;;;;;;;;;;;;4981118;28;19921;-82
2022/12/08 08:58:49;;;;;;;;;;;;;;;;;;4980863;28;19929;-82
2022/12/08 09:01:15;;;;;;;;;;;;;;;;;;4979096;28;19922;-83
2022/12/08 09:03:41;;;;;;;;;;;;;;;;;;4979162;28;19921;-83
2022/12/08 09:06:07;;;;;;;;;;;;;;;;;;4981047;28;19914;-83
2022/12/08 09:08:47;;;;;;;;;;;;;;;;;;4948502;28;19914;-83
2022/12/08 09:11:17;;;;;;;;;;;;;;;;;;4983090;28;19937;-83
2022/12/08 09:13:44;;;;;;;;;;;;;;;;;;5000880;28;19914;-83
2022/12/08 09:16:19;;;;;;;;;;;;;;;;;;4967867;28;19910;-83
2022/12/08 09:18:48;;;;;;;;;;;;;;;;;;4983548;28;19914;-83
2022/12/08 09:21:15;;;;;;;;;;;;;;;;;;4982650;28;19917;-83
2022/12/08 09:23:44;;;;;;;;;;;;;;;;;;4984151;28;19906;-83
2022/12/08 09:26:12;;;;;;;;;;;;;;;;;;4967375;28;19914;-83
2022/12/08 09:28:45;;;;;;;;;;;;;;;;;;4982076;28;19914;-83
2022/12/08 09:31:11;;;;;;;;;;;;;;;;;;4998346;28;19929;-83
2022/12/08 09:33:36;;;;;;;;;;;;;;;;;;4998812;28;19914;-83
2022/12/08 09:36:05;;;;;;;;;;;;;;;;;;4996613;28;19914;-83
2022/12/08 09:38:32;;;;;;;;;;;;;;;;;;4966266;28;19932;-82
2022/12/08 09:40:58;;;;;;;;;;;;;;;;;;4981914;28;19918;-83
2022/12/08 09:43:24;;;;;;;;;;;;;;;;;;4981656;28;19982;-83
2022/12/08 09:45:50;;;;;;;;;;;;;;;;;;4966608;28;19921;-83
2022/12/08 09:48:16;;;;;;;;;;;;;;;;;;4998558;28;19917;-83
2022/12/08 09:50:45;;;;;;;;;;;;;;;;;;4998656;28;20284;-83
2022/12/08 09:53:20;;;;;;;;;;;;;;;;;;4967070;28;19925;-84
2022/12/08 09:55:48;;;;;;;;;;;;;;;;;;4984092;28;19994;-83
2022/12/08 09:58:16;;;;;;;;;;;;;;;;;;4979293;28;20433;-83
2022/12/08 10:00:43;;;;;;;;;;;;;;;;;;4947799;29;19918;-83
2022/12/08 10:03:09;;;;;;;;;;;;;;;;;;4960991;29;19926;-82
2022/12/08 10:05:36;;;;;;;;;;;;;;;;;;4974852;29;19915;-82
2022/12/08 10:08:02;;;;;;;;;;;;;;;;;;4973535;28;19942;-82
2022/12/08 10:10:27;;;;;;;;;;;;;;;;;;4975380;29;19941;-82
2022/12/08 10:12:56;;;;;;;;;;;;;;;;;;4975404;29;19898;-82
2022/12/08 10:15:22;;;;;;;;;;;;;;;;;;4976754;28;19915;-82
2022/12/08 10:17:50;;;;;;;;;;;;;;;;;;4958638;29;19914;-82
2022/12/08 10:20:15;;;;;;;;;;;;;;;;;;4972139;28;19961;-82
2022/12/08 10:22:41;;;;;;;;;;;;;;;;;;4976820;29;19982;-82
2022/12/08 10:25:08;;;;;;;;;;;;;;;;;;4961185;29;19914;-83
2022/12/08 10:27:36;;;;;;;;;;;;;;;;;;4962115;28;19927;-82
2022/12/08 10:30:02;;;;;;;;;;;;;;;;;;4960678;29;19950;-82
2022/12/08 10:32:28;;;;;;;;;;;;;;;;;;4958080;28;19926;-83
2022/12/08 10:34:57;;;;;;;;;;;;;;;;;;4972274;28;19914;-81
2022/12/08 10:37:23;;;;;;;;;;;;;;;;;;4973863;28;19914;-82
2022/12/08 10:39:51;;;;;;;;;;;;;;;;;;4972118;28;19918;-83
2022/12/08 10:42:17;;;;;;;;;;;;;;;;;;4954656;28;19949;-82
2022/12/08 10:44:42;;;;;;;;;;;;;;;;;;4963004;28;19914;-81
2022/12/08 10:47:08;;;;;;;;;;;;;;;;;;4958918;28;19919;-80
2022/12/08 10:49:34;;;;;;;;;;;;;;;;;;4942067;29;19914;-81
2022/12/08 10:52:02;;;;;;;;;;;;;;;;;;4941670;29;19988;-80
2022/12/08 10:54:27;;;;;;;;;;;;;;;;;;4957944;28;20272;-80
2022/12/08 10:56:53;;;;;;;;;;;;;;;;;;4943511;29;19957;-82
2022/12/08 10:59:19;;;;;;;;;;;;;;;;;;4982548;28;19921;-81
2022/12/08 11:01:44;;;;;;;;;;;;;;;;;;4964102;28;19918;-80
2022/12/08 11:04:11;;;;;;;;;;;;;;;;;;4987146;28;20283;-81
2022/12/08 11:06:36;;;;;;;;;;;;;;;;;;4973416;28;19915;-81
2022/12/08 11:09:02;;;;;;;;;;;;;;;;;;4992808;28;20262;-79
2022/12/08 11:11:27;;;;;;;;;;;;;;;;;;4972328;28;19914;-80
2022/12/08 11:13:53;;;;;;;;;;;;;;;;;;4987682;28;19921;-80
2022/12/08 11:16:18;;;;;;;;;;;;;;;;;;4977790;28;19987;-80
2022/12/08 11:18:45;;;;;;;;;;;;;;;;;;4973216;28;20308;-80
2022/12/08 11:21:11;;;;;;;;;;;;;;;;;;4960150;28;20385;-81
2022/12/08 11:23:38;;;;;;;;;;;;;;;;;;4977896;28;20132;-80
2022/12/08 11:26:03;;;;;;;;;;;;;;;;;;4984447;28;19918;-82
2022/12/08 11:28:29;;;;;;;;;;;;;;;;;;4985292;28;20020;-82
2022/12/08 11:30:56;;;;;;;;;;;;;;;;;;4971188;28;19914;-81
2022/12/08 11:33:21;;;;;;;;;;;;;;;;;;4948302;28;20061;-81
2022/12/08 11:35:47;;;;;;;;;;;;;;;;;;4962504;28;19986;-81
2022/12/08 11:38:12;;;;;;;;;;;;;;;;;;4968362;28;20463;-82
2022/12/08 11:40:38;;;;;;;;;;;;;;;;;;4951737;28;20005;-80
2022/12/08 11:43:03;;;;;;;;;;;;;;;;;;4979730;28;19918;-81
2022/12/08 11:45:28;;;;;;;;;;;;;;;;;;4979244;28;19918;-80
2022/12/08 11:47:54;;;;;;;;;;;;;;;;;;4960758;28;19930;-82
2022/12/08 11:50:19;;;;;;;;;;;;;;;;;;4951694;29;19921;-81
2022/12/08 11:52:44;;;;;;;;;;;;;;;;;;4960893;28;19981;-82
2022/12/08 11:55:10;;;;;;;;;;;;;;;;;;4926227;28;19913;-82
2022/12/08 11:57:51;;;;;;;;;;;;;;;;;;4987461;28;19997;-82
2022/12/08 12:00:20;;;;;;;;;;;;;;;;;;4943731;28;19937;-82
2022/12/08 12:02:49;;;;;;;;;;;;;;;;;;4962796;28;19973;-85
2022/12/08 12:05:28;;;;;;;;;;;;;;;;;;4966193;28;19922;-83
2022/12/08 12:08:08;;;;;;;;;;;;;;;;;;4970274;28;19942;-81
2022/12/08 12:10:36;;;;;;;;;;;;;;;;;;5279314;23;20023;-81
2022/12/08 12:13:02;;;;;;;;;;;;;;;;;;5018626;28;19913;-81
2022/12/08 12:15:27;;;;;;;;;;;;;;;;;;5014707;28;20361;-81
2022/12/08 12:17:53;;;;;;;;;;;;;;;;;;4997104;28;19914;-81
2022/12/08 12:20:18;;;;;;;;;;;;;;;;;;5010915;28;19921;-82
2022/12/08 12:22:44;;;;;;;;;;;;;;;;;;4977612;28;19924;-82
2022/12/08 12:25:09;;;;;;;;;;;;;;;;;;4985613;28;19921;-82
2022/12/08 12:27:35;;;;;;;;;;;;;;;;;;4981285;28;19964;-82
2022/12/08 12:30:01;;;;;;;;;;;;;;;;;;4998190;28;19994;-82
2022/12/08 12:32:26;;;;;;;;;;;;;;;;;;4994335;28;20374;-83
2022/12/08 12:34:52;;;;;;;;;;;;;;;;;;5011006;28;19998;-82
2022/12/08 12:37:18;;;;;;;;;;;;;;;;;;4985859;28;19925;-83
2022/12/08 12:39:46;;;;;;;;;;;;;;;;;;4990420;28;19968;-84
2022/12/08 12:42:12;;;;;;;;;;;;;;;;;;5013653;28;19918;-83
2022/12/08 12:44:38;;;;;;;;;;;;;;;;;;5012514;28;19914;-83
2022/12/08 12:47:03;;;;;;;;;;;;;;;;;;5008453;28;19914;-82
2022/12/08 12:49:29;;;;;;;;;;;;;;;;;;4999329;28;19914;-82
2022/12/08 12:51:54;;;;;;;;;;;;;;;;;;5016815;28;19949;-82
2022/12/08 12:54:20;;;;;;;;;;;;;;;;;;5016955;28;19998;-82
2022/12/08 12:56:47;;;;;;;;;;;;;;;;;;5016526;28;19929;-82
2022/12/08 12:59:12;;;;;;;;;;;;;;;;;;5016201;28;19969;-82
2022/12/08 13:01:38;;;;;;;;;;;;;;;;;;5016246;28;19941;-83
2022/12/08 13:04:03;;;;;;;;;;;;;;;;;;5019464;28;19945;-82
2022/12/08 13:06:30;;;;;;;;;;;;;;;;;;4995590;28;19986;-83
2022/12/08 13:08:56;;;;;;;;;;;;;;;;;;4999638;28;19918;-82
2022/12/08 13:11:22;;;;;;;;;;;;;;;;;;5010493;28;19918;-83
2022/12/08 13:13:47;;;;;;;;;;;;;;;;;;5008045;28;19914;-83
2022/12/08 13:16:13;;;;;;;;;;;;;;;;;;4992502;28;19926;-83
2022/12/08 13:18:39;;;;;;;;;;;;;;;;;;5009868;28;19910;-82
2022/12/08 13:21:06;;;;;;;;;;;;;;;;;;4989686;28;19914;-82
2022/12/08 13:23:31;;;;;;;;;;;;;;;;;;4985034;28;20305;-81
2022/12/08 13:25:57;;;;;;;;;;;;;;;;;;4982798;28;20399;-82
2022/12/08 13:28:22;;;;;;;;;;;;;;;;;;4995921;28;19914;-82
2022/12/08 13:30:51;;;;;;;;;;;;;;;;;;4995417;28;19918;-82
2022/12/08 13:33:16;;;;;;;;;;;;;;;;;;4997540;28;19918;-82
2022/12/08 13:35:42;;;;;;;;;;;;;;;;;;4979354;28;19921;-82
2022/12/08 13:38:07;;;;;;;;;;;;;;;;;;4980180;28;19914;-83
2022/12/08 13:40:36;;;;;;;;;;;;;;;;;;4996934;28;19929;-83
2022/12/08 15:15:51;;;;;;;;;;;;;;;;;;5771862;22;19926;-81
2022/12/08 15:18:17;;;;;;;;;;;;;;;;;;5002060;28;19937;-83
2022/12/08 15:20:43;;;;;;;;;;;;;;;;;;5019409;28;19965;-84
2022/12/08 15:23:08;;;;;;;;;;;;;;;;;;5018609;28;19926;-82
2022/12/08 15:25:34;;;;;;;;;;;;;;;;;;5019074;28;19917;-84
2022/12/08 15:28:00;;;;;;;;;;;;;;;;;;5019298;28;19918;-83
2022/12/08 15:30:27;;;;;;;;;;;;;;;;;;5018440;28;19901;-82
2022/12/08 15:32:54;;;;;;;;;;;;;;;;;;5018958;28;19969;-83
2022/12/08 15:35:20;;;;;;;;;;;;;;;;;;5002911;28;19904;-83
2022/12/08 15:37:46;;;;;;;;;;;;;;;;;;5018586;28;19918;-84
2022/12/08 15:40:21;;;;;;;;;;;;;;;;;;5017438;28;19937;-83
2022/12/08 15:42:47;;;;;;;;;;;;;;;;;;5018210;28;19910;-83
2022/12/08 15:45:13;;;;;;;;;;;;;;;;;;5018770;28;19918;-83
2022/12/08 15:47:41;;;;;;;;;;;;;;;;;;5019309;28;19909;-84
2022/12/08 15:50:09;;;;;;;;;;;;;;;;;;5019311;28;19902;-83
2022/12/08 15:52:37;;;;;;;;;;;;;;;;;;5018235;28;19917;-84
2022/12/08 15:55:07;;;;;;;;;;;;;;;;;;5034196;28;19945;-83
2022/12/08 15:57:33;;;;;;;;;;;;;;;;;;5017581;28;19921;-83
2022/12/08 15:59:59;;;;;;;;;;;;;;;;;;5017943;28;19917;-83
2022/12/08 16:02:24;;;;;;;;;;;;;;;;;;5017958;28;19910;-84
2022/12/08 16:04:50;;;;;;;;;;;;;;;;;;5800415;22;19933;-81
2022/12/08 16:07:16;;;;;;;;;;;;;;;;;;4982334;28;19965;-84
2022/12/08 16:09:42;;;;;;;;;;;;;;;;;;4998920;28;19922;-83
2022/12/08 16:14:53;;;;;;;;;;;;;;;;;;4966253;28;19922;-82
2022/12/08 16:17:19;;;;;;;;;;;;;;;;;;4982181;28;19903;-82
2022/12/08 16:19:46;;;;;;;;;;;;;;;;;;4965175;28;19978;-81
2022/12/08 16:22:16;;;;;;;;;;;;;;;;;;4980254;28;19917;-80
2022/12/08 16:24:42;;;;;;;;;;;;;;;;;;4965258;28;19906;-82
2022/12/08 16:27:09;;;;;;;;;;;;;;;;;;4982353;28;19902;-81
2022/12/08 16:29:35;;;;;;;;;;;;;;;;;;4950328;28;19918;-81
2022/12/08 16:32:02;;;;;;;;;;;;;;;;;;4966406;28;19934;-83
2022/12/08 16:39:45;;;;;;;;;;;;;;;;;;5703550;22;19910;-83
2022/12/08 16:44:56;;;;;;;;;;;;;;;;;;5024946;28;19976;-83
2022/12/08 16:47:22;;;;;;;;;;;;;;;;;;5012683;28;19897;-83
2022/12/08 16:49:48;;;;;;;;;;;;;;;;;;5020586;28;19915;-82
2022/12/08 16:52:14;;;;;;;;;;;;;;;;;;5022201;28;19924;-84
2022/12/08 16:54:40;;;;;;;;;;;;;;;;;;5007617;28;19901;-82
2022/12/08 16:57:07;;;;;;;;;;;;;;;;;;5001457;28;19920;-84
2022/12/08 16:59:33;;;;;;;;;;;;;;;;;;5004386;28;19914;-83
2022/12/08 17:02:00;;;;;;;;;;;;;;;;;;5018314;28;19924;-84
2022/12/08 17:04:26;;;;;;;;;;;;;;;;;;5008062;28;19894;-84
2022/12/08 17:09:37;;;;;;;;;;;;;;;;;;5816452;22;19910;-82
2022/12/08 17:12:03;;;;;;;;;;;;;;;;;;5003082;28;19922;-83
2022/12/08 17:14:29;;;;;;;;;;;;;;;;;;4988751;28;19969;-80
2022/12/08 17:16:55;;;;;;;;;;;;;;;;;;4985356;28;19942;-82
2022/12/08 17:19:21;;;;;;;;;;;;;;;;;;4984755;28;19922;-84
2022/12/08 17:21:48;;;;;;;;;;;;;;;;;;4969529;28;19910;-84
2022/12/08 17:27:08;;;;;;;;;;;;;;;;;;5759992;23;19909;-86
2022/12/08 17:32:21;;;;;;;;;;;;;;;;;;6043585;22;20978;-83
2022/12/08 20:03:01;;;;;;;;;;;;;;;;;;5314243;22;19921;-83
2022/12/08 20:05:28;;;;;;;;;;;;;;;;;;4986450;28;19925;-82
2022/12/08 20:10:38;;;;;;;;;;;;;;;;;;5511009;22;19952;-84
2022/12/08 20:23:58;;;;;;;;;;;;;;;;;;5173665;22;19910;-84
2022/12/08 20:26:27;;;;;;;;;;;;;;;;;;4983208;28;19924;-84
2022/12/08 20:31:42;;;;;;;;;;;;;;;;;;5319196;22;19926;-84
2022/12/08 20:34:08;;;;;;;;;;;;;;;;;;5005877;28;19902;-84
2022/12/08 20:36:37;;;;;;;;;;;;;;;;;;4970470;28;19945;-85
2022/12/08 20:41:48;;;;;;;;;;;;;;;;;;5383883;22;19910;-85
2022/12/08 20:44:15;;;;;;;;;;;;;;;;;;4973547;28;19913;-84
2022/12/08 20:46:44;;;;;;;;;;;;;;;;;;4973785;28;19918;-83
2022/12/08 20:51:58;;;;;;;;;;;;;;;;;;6093358;22;19923;-85
2022/12/08 20:54:33;;;;;;;;;;;;;;;;;;4969927;28;19945;-85
2022/12/08 20:57:18;;;;;;;;;;;;;;;;;;5057188;23;19948;-84
2022/12/08 21:02:26;;;;;;;;;;;;;;;;;;5031999;22;19910;-84
2022/12/08 21:30:13;;;;;;;;;;;;;;;;;;5259177;22;19917;-83
2022/12/08 21:38:06;;;;;;;;;;;;;;;;;;6061112;22;19919;-84
2022/12/08 21:40:35;;;;;;;;;;;;;;;;;;5024810;28;19929;-85
2022/12/08 21:43:02;;;;;;;;;;;;;;;;;;5008117;28;19960;-85
2022/12/08 21:45:28;;;;;;;;;;;;;;;;;;4990929;28;19897;-84
2022/12/08 21:53:14;;;;;;;;;;;;;;;;;;4999205;28;19926;-84
2022/12/08 21:55:41;;;;;;;;;;;;;;;;;;4968379;28;19961;-84
2022/12/08 21:58:08;;;;;;;;;;;;;;;;;;4968910;28;19930;-85
2022/12/08 22:06:05;;;;;;;;;;;;;;;;;;5018868;28;19933;-84
2022/12/08 22:11:13;;;;;;;;;;;;;;;;;;4999858;28;19911;-85
2022/12/08 22:13:42;;;;;;;;;;;;;;;;;;4985549;28;19954;-85